Time;durP1;ratioP1;P1;durP2;ratioP2;P2;SDS_P1;SDS_P2;PMS_P1;PMS_P2;Temp;Humidity;BMP_temperature;BMP_pressure;BME280_temperature;BME280_humidity;BME280_pressure;Samples;Min_cycle;Max_cycle;Signal;HPM_P1;HPM_P2
2022/01/07 15:05:24;;;;;;;5.50;1.30;;;;;;;;;;4956135;27;95794;-73
2022/01/07 15:08:04;;;;;;;4.78;1.33;;;;;;;;;;4955209;28;97886;-74
2022/01/07 15:10:31;;;;;;;4.10;1.50;;;;;;;;;;4955676;28;95501;-74
2022/01/07 15:12:57;;;;;;;4.00;1.63;;;;;;;;;;4963111;28;96747;-74
2022/01/07 15:18:09;;;;;;;7.22;1.65;;;;;;;;;;4956520;28;95617;-75
2022/01/07 15:20:35;;;;;;;5.75;1.58;;;;;;;;;;4962292;28;96999;-74
2022/01/07 15:23:04;;;;;;;9.30;1.65;;;;;;;;;;4956714;28;97313;-74
2022/01/07 15:25:31;;;;;;;9.93;1.70;;;;;;;;;;4961922;28;95603;-75
2022/01/07 15:27:57;;;;;;;7.03;1.50;;;;;;;;;;4960067;28;97318;-74
2022/01/07 15:30:24;;;;;;;9.43;1.60;;;;;;;;;;4961573;28;96627;-74
2022/01/07 15:32:50;;;;;;;7.45;1.65;;;;;;;;;;4966005;28;96996;-75
2022/01/07 15:35:19;;;;;;;8.15;2.00;;;;;;;;;;4967221;28;97235;-75
2022/01/07 15:37:45;;;;;;;10.05;2.38;;;;;;;;;;4967893;28;95384;-75
2022/01/07 15:40:12;;;;;;;5.28;1.73;;;;;;;;;;4965593;28;96964;-74
2022/01/07 15:42:39;;;;;;;7.65;1.80;;;;;;;;;;4953283;28;96185;-74
2022/01/07 15:45:06;;;;;;;12.80;1.67;;;;;;;;;;4954464;28;95333;-74
2022/01/07 15:47:33;;;;;;;11.65;2.00;;;;;;;;;;4986348;28;96862;-78
2022/01/07 15:49:59;;;;;;;7.80;1.67;;;;;;;;;;4978243;28;95431;-77
2022/01/07 15:52:25;;;;;;;6.85;1.83;;;;;;;;;;4965649;28;96563;-75
2022/01/07 15:54:53;;;;;;;3.92;1.50;;;;;;;;;;4965876;28;97302;-77
2022/01/07 15:57:19;;;;;;;6.10;1.80;;;;;;;;;;4966744;28;95608;-78
2022/01/07 15:59:46;;;;;;;5.88;2.05;;;;;;;;;;4968072;28;97441;-78
2022/01/07 16:02:12;;;;;;;4.63;2.13;;;;;;;;;;4965290;28;97327;-78
2022/01/07 16:04:39;;;;;;;5.28;1.55;;;;;;;;;;4967254;28;95348;-78
2022/01/07 16:07:05;;;;;;;7.13;1.80;;;;;;;;;;4965221;28;97333;-76
2022/01/07 16:09:31;;;;;;;5.93;1.80;;;;;;;;;;4955402;28;97368;-77
2022/01/07 16:11:57;;;;;;;9.15;2.20;;;;;;;;;;4959460;28;96761;-77
2022/01/07 16:14:24;;;;;;;6.25;2.33;;;;;;;;;;4966247;28;97728;-75
2022/01/07 16:16:51;;;;;;;6.00;2.85;;;;;;;;;;4954489;28;95535;-75
2022/01/07 16:19:18;;;;;;;7.45;2.42;;;;;;;;;;4952585;28;97148;-75
2022/01/07 16:21:44;;;;;;;7.25;2.83;;;;;;;;;;4952848;28;97499;-78
2022/01/07 16:24:10;;;;;;;10.27;2.65;;;;;;;;;;4952187;28;95245;-77
2022/01/07 16:26:37;;;;;;;10.82;4.35;;;;;;;;;;4953060;28;96813;-75
2022/01/07 16:29:03;;;;;;;9.40;3.42;;;;;;;;;;4950891;28;97344;-74
2022/01/07 16:31:30;;;;;;;12.38;2.40;;;;;;;;;;4953493;28;95288;-76
2022/01/07 16:33:56;;;;;;;11.85;2.38;;;;;;;;;;4937274;28;96083;-75
2022/01/07 16:36:23;;;;;;;12.73;3.35;;;;;;;;;;4934207;28;96021;-76
2022/01/07 16:38:49;;;;;;;5.38;2.30;;;;;;;;;;4933755;28;97032;-75
2022/01/07 16:41:17;;;;;;;14.60;2.63;;;;;;;;;;4939948;28;97585;-75
2022/01/07 16:43:44;;;;;;;9.45;2.42;;;;;;;;;;4954805;28;95762;-74
2022/01/07 16:46:12;;;;;;;10.20;2.30;;;;;;;;;;4972132;28;96848;-73
2022/01/07 16:48:39;;;;;;;10.15;2.33;;;;;;;;;;4954914;28;97361;-74
2022/01/07 16:51:05;;;;;;;9.25;2.60;;;;;;;;;;4951576;28;95468;-74
2022/01/07 16:53:32;;;;;;;4.22;2.10;;;;;;;;;;4954125;28;97092;-74
2022/01/07 16:55:59;;;;;;;8.88;2.35;;;;;;;;;;4952831;28;95551;-74
2022/01/07 16:58:25;;;;;;;8.52;2.33;;;;;;;;;;4952135;28;97022;-74
2022/01/07 17:00:51;;;;;;;9.35;2.42;;;;;;;;;;4950457;28;97039;-75
2022/01/07 17:03:21;;;;;;;8.85;2.60;;;;;;;;;;4946817;28;95550;-74
2022/01/07 17:05:49;;;;;;;6.55;2.40;;;;;;;;;;4949393;28;96849;-73
2022/01/07 17:08:15;;;;;;;11.30;3.22;;;;;;;;;;4949328;28;97542;-74
2022/01/07 17:10:44;;;;;;;10.73;2.80;;;;;;;;;;4941948;28;95765;-75
2022/01/07 17:13:10;;;;;;;9.82;2.30;;;;;;;;;;4940315;28;96739;-74
2022/01/07 17:15:40;;;;;;;9.43;2.22;;;;;;;;;;4949256;28;96239;-75
2022/01/07 17:18:07;;;;;;;9.60;2.63;;;;;;;;;;4932689;28;98149;-78
2022/01/07 17:20:34;;;;;;;11.18;2.70;;;;;;;;;;4940414;28;97793;-74
2022/01/07 17:23:01;;;;;;;8.57;2.65;;;;;;;;;;4953318;28;95371;-74
2022/01/07 17:25:27;;;;;;;6.78;2.20;;;;;;;;;;4950858;28;97003;-76
2022/01/07 17:27:53;;;;;;;12.82;2.78;;;;;;;;;;4951398;28;97384;-74
2022/01/07 17:30:20;;;;;;;9.73;2.25;;;;;;;;;;4933090;28;95136;-74
2022/01/07 17:32:46;;;;;;;8.38;2.58;;;;;;;;;;4932977;28;96841;-74
2022/01/07 17:35:14;;;;;;;16.13;2.65;;;;;;;;;;4954791;28;97141;-74
2022/01/07 17:37:41;;;;;;;7.90;2.67;;;;;;;;;;4947500;28;97112;-74
2022/01/07 17:40:07;;;;;;;7.18;2.28;;;;;;;;;;4932891;28;97381;-75
2022/01/07 17:42:34;;;;;;;9.00;2.58;;;;;;;;;;4952060;28;95492;-73
2022/01/07 17:45:01;;;;;;;9.45;2.72;;;;;;;;;;4945808;28;97087;-72
2022/01/07 17:47:27;;;;;;;11.50;2.72;;;;;;;;;;4946272;28;97404;-72
2022/01/07 17:49:53;;;;;;;13.95;2.83;;;;;;;;;;4947836;28;96565;-74
2022/01/07 17:52:20;;;;;;;6.93;2.83;;;;;;;;;;4951705;28;97227;-75
2022/01/07 17:54:46;;;;;;;12.65;2.63;;;;;;;;;;4944661;28;97304;-74
2022/01/07 17:57:12;;;;;;;11.88;2.90;;;;;;;;;;4954707;28;95404;-74
2022/01/07 17:59:39;;;;;;;12.80;3.35;;;;;;;;;;4952623;28;97421;-74
2022/01/07 18:02:06;;;;;;;8.35;3.53;;;;;;;;;;4951313;28;95165;-74
2022/01/07 18:04:33;;;;;;;10.32;3.08;;;;;;;;;;4949424;28;97659;-76
2022/01/07 18:06:59;;;;;;;14.02;3.40;;;;;;;;;;4936657;28;97307;-74
2022/01/07 18:09:26;;;;;;;9.98;3.78;;;;;;;;;;4940713;28;95691;-74
2022/01/07 18:11:52;;;;;;;11.82;3.50;;;;;;;;;;4951484;28;96706;-74
2022/01/07 18:14:20;;;;;;;9.30;3.28;;;;;;;;;;4948478;28;97601;-74
2022/01/07 18:16:46;;;;;;;15.45;4.30;;;;;;;;;;4950292;28;95249;-74
2022/01/07 18:19:12;;;;;;;11.70;4.35;;;;;;;;;;4950559;28;97046;-77
2022/01/07 18:21:39;;;;;;;14.68;5.28;;;;;;;;;;4950154;28;95425;-76
2022/01/07 18:24:05;;;;;;;14.38;5.82;;;;;;;;;;4950422;28;96676;-77
2022/01/07 18:26:32;;;;;;;12.80;4.97;;;;;;;;;;4944565;28;97334;-75
2022/01/07 18:28:58;;;;;;;14.27;5.43;;;;;;;;;;4951031;28;95554;-77
2022/01/07 18:31:25;;;;;;;8.75;3.90;;;;;;;;;;4946310;28;97185;-77
2022/01/07 18:33:53;;;;;;;12.32;4.55;;;;;;;;;;4945337;28;97298;-77
2022/01/07 18:36:19;;;;;;;15.38;5.00;;;;;;;;;;4942541;28;98326;-78
2022/01/07 18:38:45;;;;;;;14.02;5.38;;;;;;;;;;4943164;28;96659;-76
2022/01/07 18:41:12;;;;;;;13.45;5.82;;;;;;;;;;4946101;28;97310;-78
2022/01/07 18:43:39;;;;;;;16.30;5.80;;;;;;;;;;4945528;28;96787;-77
2022/01/07 18:46:05;;;;;;;21.88;7.70;;;;;;;;;;4944848;28;97508;-78
2022/01/07 18:48:32;;;;;;;16.15;6.88;;;;;;;;;;4944991;28;95221;-78
2022/01/07 18:50:59;;;;;;;24.45;9.55;;;;;;;;;;4944337;28;96758;-75
2022/01/07 18:53:25;;;;;;;17.95;7.60;;;;;;;;;;4945162;28;97831;-77
2022/01/07 18:55:52;;;;;;;24.67;11.25;;;;;;;;;;4943294;28;95340;-77
2022/01/07 18:58:19;;;;;;;21.88;8.13;;;;;;;;;;4943905;28;96845;-77
2022/01/07 19:00:47;;;;;;;21.80;10.40;;;;;;;;;;4949260;28;97291;-76
2022/01/07 19:03:33;;;;;;;21.77;10.52;;;;;;;;;;4948557;28;95449;-78
2022/01/07 19:06:01;;;;;;;20.15;9.02;;;;;;;;;;4945052;28;97977;-78
2022/01/07 19:08:28;;;;;;;15.88;7.57;;;;;;;;;;4953518;28;95436;-74
2022/01/07 19:10:54;;;;;;;15.30;7.00;;;;;;;;;;4941564;28;96749;-74
2022/01/07 19:13:21;;;;;;;22.70;6.65;;;;;;;;;;4939648;28;97590;-73
2022/01/07 19:15:47;;;;;;;11.80;6.07;;;;;;;;;;4946417;28;95349;-73
2022/01/07 19:18:18;;;;;;;15.98;6.65;;;;;;;;;;4944044;28;97286;-73
2022/01/07 19:20:44;;;;;;;16.40;6.15;;;;;;;;;;4940232;28;97323;-73
2022/01/07 19:23:11;;;;;;;11.88;6.03;;;;;;;;;;4938719;28;95729;-74
2022/01/07 19:25:37;;;;;;;17.92;6.32;;;;;;;;;;4947359;28;97380;-74
2022/01/07 19:28:03;;;;;;;15.88;6.80;;;;;;;;;;4944763;28;95355;-75
2022/01/07 19:30:30;;;;;;;13.18;7.05;;;;;;;;;;4940654;28;97205;-74
2022/01/07 19:32:56;;;;;;;19.45;8.88;;;;;;;;;;4946455;28;97581;-73
2022/01/07 19:35:23;;;;;;;21.08;9.70;;;;;;;;;;4946747;28;95454;-74
2022/01/07 19:37:49;;;;;;;25.20;8.02;;;;;;;;;;4933509;28;96720;-73
2022/01/07 19:40:16;;;;;;;17.50;7.75;;;;;;;;;;4942527;28;97721;-74
2022/01/07 19:42:42;;;;;;;23.25;9.02;;;;;;;;;;4946468;28;95392;-74
2022/01/07 19:45:09;;;;;;;25.23;8.82;;;;;;;;;;4949361;28;96786;-74
2022/01/07 19:47:36;;;;;;;19.42;8.55;;;;;;;;;;4945555;28;95374;-73
2022/01/07 19:50:04;;;;;;;19.90;8.63;;;;;;;;;;4946962;28;97096;-73
2022/01/07 19:52:30;;;;;;;21.23;9.18;;;;;;;;;;4944735;28;97306;-74
2022/01/07 19:54:57;;;;;;;16.80;7.75;;;;;;;;;;4957046;28;95514;-72
2022/01/07 19:57:23;;;;;;;17.50;7.25;;;;;;;;;;4952927;28;96866;-76
2022/01/07 19:59:49;;;;;;;22.35;7.05;;;;;;;;;;4949438;28;97728;-72
2022/01/07 20:02:16;;;;;;;15.00;6.68;;;;;;;;;;4950485;28;95523;-73
2022/01/07 20:04:42;;;;;;;18.70;8.20;;;;;;;;;;4952516;28;96091;-73
2022/01/07 20:07:09;;;;;;;24.90;8.77;;;;;;;;;;4955399;28;97250;-73
2022/01/07 20:09:37;;;;;;;18.38;9.45;;;;;;;;;;4951744;28;97208;-72
2022/01/07 20:12:04;;;;;;;39.65;19.25;;;;;;;;;;4948967;28;97573;-73
2022/01/07 20:14:30;;;;;;;43.15;20.20;;;;;;;;;;4952076;28;95456;-72
2022/01/07 20:16:57;;;;;;;38.28;18.48;;;;;;;;;;4953257;28;96735;-73
2022/01/07 20:19:23;;;;;;;34.63;17.23;;;;;;;;;;4952027;28;97746;-72
2022/01/07 20:21:49;;;;;;;40.95;17.30;;;;;;;;;;4952261;28;95632;-72
2022/01/07 20:24:16;;;;;;;31.38;15.43;;;;;;;;;;4943618;28;97159;-73
2022/01/07 20:26:43;;;;;;;31.48;15.73;;;;;;;;;;4954057;28;97627;-74
2022/01/07 20:29:09;;;;;;;28.23;14.13;;;;;;;;;;4950902;28;95634;-75
2022/01/07 20:31:35;;;;;;;28.30;14.23;;;;;;;;;;4937018;28;97195;-73
2022/01/07 20:34:02;;;;;;;29.77;13.88;;;;;;;;;;4933251;28;95839;-73
2022/01/07 20:36:28;;;;;;;33.97;17.50;;;;;;;;;;4947255;28;97182;-72
2022/01/07 20:38:55;;;;;;;36.72;19.55;;;;;;;;;;4932230;28;97599;-74
2022/01/07 20:41:21;;;;;;;92.90;37.40;;;;;;;;;;4934143;28;95344;-72
2022/01/07 20:43:47;;;;;;;47.70;22.60;;;;;;;;;;4939863;28;96900;-73
2022/01/07 20:46:15;;;;;;;22.75;13.13;;;;;;;;;;4941971;28;97548;-75
2022/01/07 20:48:42;;;;;;;27.02;11.35;;;;;;;;;;4934806;28;95226;-75
2022/01/07 20:51:09;;;;;;;25.80;12.18;;;;;;;;;;4953620;28;97000;-74
2022/01/07 20:53:38;;;;;;;21.20;11.68;;;;;;;;;;4936669;28;95571;-74
2022/01/07 20:56:04;;;;;;;26.55;12.02;;;;;;;;;;4940532;28;96761;-74
2022/01/07 20:58:31;;;;;;;24.45;10.93;;;;;;;;;;4948873;28;97318;-75
2022/01/07 21:00:57;;;;;;;20.38;9.88;;;;;;;;;;4934293;28;95200;-76
2022/01/07 21:03:24;;;;;;;22.65;9.65;;;;;;;;;;4933505;28;95652;-74
2022/01/07 21:05:50;;;;;;;21.40;9.23;;;;;;;;;;4941093;28;97408;-75
2022/01/07 21:08:20;;;;;;;17.67;9.30;;;;;;;;;;4953428;28;95336;-76
2022/01/07 21:10:47;;;;;;;19.13;9.70;;;;;;;;;;4949891;28;96095;-74
2022/01/07 21:13:13;;;;;;;18.40;9.32;;;;;;;;;;4962807;28;97354;-73
2022/01/07 21:15:41;;;;;;;22.02;10.80;;;;;;;;;;4950257;28;96880;-76
2022/01/07 21:18:08;;;;;;;18.17;9.07;;;;;;;;;;4954087;28;97249;-76
2022/01/07 21:20:39;;;;;;;17.67;8.90;;;;;;;;;;4949783;28;95406;-73
2022/01/07 21:23:08;;;;;;;20.58;9.52;;;;;;;;;;4953962;28;96527;-76
2022/01/07 21:25:35;;;;;;;20.88;8.63;;;;;;;;;;4939115;28;97444;-76
2022/01/07 21:28:01;;;;;;;18.80;7.90;;;;;;;;;;4948330;28;95474;-76
2022/01/07 21:30:28;;;;;;;17.55;9.02;;;;;;;;;;4943219;28;96135;-74
2022/01/07 21:32:54;;;;;;;20.30;9.38;;;;;;;;;;4957223;28;97693;-73
2022/01/07 21:35:22;;;;;;;22.60;9.65;;;;;;;;;;4948813;28;96804;-75
2022/01/07 21:37:48;;;;;;;20.23;9.68;;;;;;;;;;4934749;28;96733;-75
2022/01/07 21:40:16;;;;;;;22.25;10.15;;;;;;;;;;4934731;28;95370;-73
2022/01/07 21:42:43;;;;;;;15.70;7.18;;;;;;;;;;4958418;28;96935;-75
2022/01/07 21:45:09;;;;;;;20.02;9.07;;;;;;;;;;4952987;28;97755;-74
2022/01/07 21:47:36;;;;;;;19.85;6.50;;;;;;;;;;4953891;28;95581;-74
2022/01/07 21:50:02;;;;;;;17.45;7.05;;;;;;;;;;4953046;28;97035;-73
2022/01/07 21:52:29;;;;;;;18.27;7.68;;;;;;;;;;4953083;28;97650;-73
2022/01/07 21:54:55;;;;;;;18.55;8.23;;;;;;;;;;4952618;28;95196;-73
2022/01/07 21:57:22;;;;;;;18.65;8.43;;;;;;;;;;4953632;28;97300;-74
2022/01/07 21:59:48;;;;;;;19.00;8.70;;;;;;;;;;4954161;28;95299;-73
2022/01/07 22:02:15;;;;;;;21.70;9.10;;;;;;;;;;4953204;28;96928;-75
2022/01/07 22:04:41;;;;;;;22.17;7.93;;;;;;;;;;4955075;28;97668;-73
2022/01/07 22:07:11;;;;;;;15.23;7.75;;;;;;;;;;4953601;28;95332;-74
2022/01/07 22:09:37;;;;;;;18.88;7.82;;;;;;;;;;4953617;28;95765;-72
2022/01/07 22:12:04;;;;;;;17.45;7.80;;;;;;;;;;4951284;28;97722;-73
2022/01/07 22:14:31;;;;;;;16.88;7.32;;;;;;;;;;4952306;28;95395;-72
2022/01/07 22:16:57;;;;;;;18.20;7.63;;;;;;;;;;4956680;28;96818;-73
2022/01/07 22:19:24;;;;;;;22.55;8.88;;;;;;;;;;4953185;28;95562;-73
2022/01/07 22:21:50;;;;;;;20.23;9.52;;;;;;;;;;4953335;28;97264;-73
2022/01/07 22:24:19;;;;;;;20.45;9.63;;;;;;;;;;4952367;28;97275;-73
2022/01/07 22:26:46;;;;;;;18.90;9.35;;;;;;;;;;4935687;28;95425;-73
2022/01/07 22:29:13;;;;;;;23.02;10.05;;;;;;;;;;4945367;28;97175;-73
2022/01/07 22:31:40;;;;;;;18.33;9.55;;;;;;;;;;4972036;28;97360;-72
2022/01/07 22:34:06;;;;;;;23.83;9.48;;;;;;;;;;4973238;28;95298;-73
2022/01/07 22:36:33;;;;;;;21.90;9.85;;;;;;;;;;4954348;28;97993;-73
2022/01/07 22:39:00;;;;;;;21.52;9.88;;;;;;;;;;4956116;28;97167;-74
2022/01/07 22:41:27;;;;;;;18.48;9.77;;;;;;;;;;4951587;28;96895;-75
2022/01/07 22:43:53;;;;;;;18.98;10.27;;;;;;;;;;4957971;28;97667;-73
2022/01/07 22:46:20;;;;;;;25.65;10.07;;;;;;;;;;4955929;28;96759;-73
2022/01/07 22:48:46;;;;;;;20.27;10.00;;;;;;;;;;4952973;28;97371;-73
2022/01/07 22:51:14;;;;;;;23.63;10.43;;;;;;;;;;4952213;28;97322;-73
2022/01/07 22:53:43;;;;;;;23.92;10.43;;;;;;;;;;4952638;28;95211;-73
2022/01/07 22:56:09;;;;;;;22.92;11.27;;;;;;;;;;4951095;28;96866;-74
2022/01/07 22:58:36;;;;;;;26.50;11.05;;;;;;;;;;4957014;28;97344;-73
2022/01/07 23:01:02;;;;;;;23.90;10.73;;;;;;;;;;4975059;28;95337;-76
2022/01/07 23:03:29;;;;;;;22.05;10.73;;;;;;;;;;4971956;28;97732;-75
2022/01/07 23:05:56;;;;;;;30.02;11.98;;;;;;;;;;4964320;28;95213;-75
2022/01/07 23:08:22;;;;;;;23.02;12.18;;;;;;;;;;4951903;28;96803;-76
2022/01/07 23:10:48;;;;;;;21.55;12.10;;;;;;;;;;4952368;28;97451;-76
2022/01/07 23:13:15;;;;;;;31.95;16.75;;;;;;;;;;4951105;28;95342;-76
2022/01/07 23:15:41;;;;;;;45.75;22.27;;;;;;;;;;4965525;28;96235;-75
2022/01/07 23:18:08;;;;;;;49.05;21.67;;;;;;;;;;4972041;28;97587;-75
2022/01/07 23:20:36;;;;;;;35.78;21.95;;;;;;;;;;4971819;28;95381;-76
2022/01/07 23:23:08;;;;;;;40.10;19.35;;;;;;;;;;4975091;28;96558;-73
2022/01/07 23:25:34;;;;;;;40.33;21.35;;;;;;;;;;4968343;28;95241;-75
2022/01/07 23:28:01;;;;;;;36.72;19.55;;;;;;;;;;4955585;28;96878;-75
2022/01/07 23:30:29;;;;;;;32.53;17.85;;;;;;;;;;4955645;28;97395;-76
2022/01/07 23:32:59;;;;;;;28.60;18.15;;;;;;;;;;4955779;28;95891;-76
2022/01/07 23:35:26;;;;;;;38.13;17.02;;;;;;;;;;4954242;28;96799;-75
2022/01/07 23:37:52;;;;;;;27.83;15.95;;;;;;;;;;4954799;28;97403;-76
2022/01/07 23:40:27;;;;;;;32.05;16.23;;;;;;;;;;4955356;28;95402;-76
2022/01/07 23:42:57;;;;;;;25.50;13.55;;;;;;;;;;4958330;28;97143;-75
2022/01/07 23:45:24;;;;;;;29.45;14.93;;;;;;;;;;4955572;28;95160;-75
2022/01/07 23:47:51;;;;;;;29.33;14.88;;;;;;;;;;4954101;28;97237;-76
2022/01/07 23:50:20;;;;;;;28.77;15.82;;;;;;;;;;4954587;28;97666;-76
2022/01/07 23:52:47;;;;;;;23.05;14.35;;;;;;;;;;4955386;28;95360;-73
2022/01/07 23:55:13;;;;;;;28.40;14.93;;;;;;;;;;4955697;28;96829;-73
2022/01/07 23:57:39;;;;;;;22.65;14.40;;;;;;;;;;4953859;28;97404;-73
